Time;durP1;ratioP1;P1;durP2;ratioP2;P2;SDS_P1;SDS_P2;PMS_P1;PMS_P2;Temp;Humidity;BMP_temperature;BMP_pressure;BME280_temperature;BME280_humidity;BME280_pressure;Samples;Min_cycle;Max_cycle;Signal;HPM_P1;HPM_P2
2023/01/14 00:01:50;;;;;;;25.63;6.70;;;;;;;;;;5114332;28;20192;-71
2023/01/14 00:04:16;;;;;;;23.57;5.83;;;;;;;;;;5112637;28;20181;-69
2023/01/14 00:06:42;;;;;;;21.93;6.23;;;;;;;;;;5113954;28;20177;-72
2023/01/14 00:09:10;;;;;;;20.90;5.97;;;;;;;;;;5114798;28;20269;-71
2023/01/14 00:11:46;;;;;;;22.77;5.47;;;;;;;;;;5114271;28;20247;-72
2023/01/14 00:14:16;;;;;;;28.60;5.83;;;;;;;;;;5114484;28;20172;-72
2023/01/14 00:16:42;;;;;;;25.07;7.10;;;;;;;;;;5112138;28;20176;-72
2023/01/14 00:19:09;;;;;;;28.27;6.43;;;;;;;;;;5113449;28;20204;-72
2023/01/14 00:21:35;;;;;;;29.10;6.37;;;;;;;;;;5114001;28;20244;-72
2023/01/14 00:24:01;;;;;;;23.40;6.20;;;;;;;;;;5114176;28;20543;-71
2023/01/14 00:26:27;;;;;;;21.77;6.07;;;;;;;;;;5114366;28;20177;-71
2023/01/14 00:28:53;;;;;;;29.03;6.10;;;;;;;;;;5112846;28;20184;-71
2023/01/14 00:31:21;;;;;;;21.00;5.93;;;;;;;;;;5113656;28;20287;-70
2023/01/14 00:33:47;;;;;;;26.10;6.20;;;;;;;;;;5112389;28;20642;-73
2023/01/14 00:36:15;;;;;;;22.73;5.40;;;;;;;;;;5112007;28;20180;-71
2023/01/14 00:38:41;;;;;;;25.77;5.77;;;;;;;;;;5113800;28;20196;-71
2023/01/14 00:41:15;;;;;;;19.63;5.43;;;;;;;;;;5111843;28;20265;-71
2023/01/14 00:43:43;;;;;;;28.97;6.10;;;;;;;;;;5113350;28;20545;-70
2023/01/14 00:46:10;;;;;;;28.23;6.00;;;;;;;;;;5117063;28;20255;-71
2023/01/14 00:48:37;;;;;;;19.47;5.30;;;;;;;;;;5117041;28;20668;-72
2023/01/14 00:51:03;;;;;;;25.60;6.03;;;;;;;;;;5117220;28;20200;-71
2023/01/14 00:53:29;;;;;;;23.73;6.30;;;;;;;;;;5118289;28;20177;-71
2023/01/14 00:55:56;;;;;;;24.70;6.83;;;;;;;;;;5117073;28;20234;-70
2023/01/14 00:58:22;;;;;;;27.63;6.97;;;;;;;;;;5117127;28;20204;-70
2023/01/14 01:00:48;;;;;;;23.37;6.40;;;;;;;;;;5117141;28;20664;-70
2023/01/14 01:03:15;;;;;;;27.27;5.50;;;;;;;;;;5117885;28;20637;-70
2023/01/14 01:05:41;;;;;;;33.60;6.23;;;;;;;;;;5141017;22;20239;-70
2023/01/14 01:08:08;;;;;;;30.57;6.67;;;;;;;;;;5116891;28;20549;-71
2023/01/14 01:10:34;;;;;;;31.53;6.97;;;;;;;;;;5115690;28;20245;-70
2023/01/14 01:13:00;;;;;;;28.20;6.67;;;;;;;;;;5117199;27;20172;-71
2023/01/14 01:15:26;;;;;;;31.83;6.70;;;;;;;;;;5116491;28;20703;-71
2023/01/14 01:17:52;;;;;;;35.63;7.30;;;;;;;;;;5117094;28;20172;-69
2023/01/14 01:20:18;;;;;;;40.03;6.97;;;;;;;;;;5116457;28;20208;-68
2023/01/14 01:22:44;;;;;;;33.90;7.10;;;;;;;;;;5116637;28;20180;-69
2023/01/14 01:25:10;;;;;;;31.60;6.77;;;;;;;;;;5116385;28;20197;-71
2023/01/14 01:27:36;;;;;;;30.13;6.97;;;;;;;;;;5116582;28;20169;-71
2023/01/14 01:30:02;;;;;;;30.10;6.53;;;;;;;;;;5115098;28;20219;-69
2023/01/14 01:32:28;;;;;;;25.83;6.20;;;;;;;;;;5116551;28;20177;-69
2023/01/14 01:34:54;;;;;;;29.10;6.53;;;;;;;;;;5116225;28;20200;-69
2023/01/14 01:37:20;;;;;;;26.43;6.10;;;;;;;;;;5115068;28;20564;-69
2023/01/14 01:39:46;;;;;;;33.93;6.43;;;;;;;;;;5116279;28;20560;-70
2023/01/14 01:42:13;;;;;;;34.57;7.10;;;;;;;;;;5116073;28;20199;-69
2023/01/14 01:44:42;;;;;;;32.30;6.83;;;;;;;;;;5114853;28;20193;-72
2023/01/14 01:47:08;;;;;;;26.97;6.00;;;;;;;;;;5116724;28;20177;-71
2023/01/14 01:49:36;;;;;;;30.80;7.00;;;;;;;;;;5118094;28;20180;-71
2023/01/14 01:52:18;;;;;;;34.93;6.77;;;;;;;;;;5115103;28;20186;-71
2023/01/14 01:54:50;;;;;;;32.77;6.37;;;;;;;;;;5116401;28;20249;-71
2023/01/14 01:57:16;;;;;;;38.10;6.93;;;;;;;;;;5115332;28;20188;-71
2023/01/14 01:59:45;;;;;;;27.70;6.40;;;;;;;;;;5116579;28;20253;-72
2023/01/14 02:02:11;;;;;;;29.87;6.90;;;;;;;;;;5116246;28;20230;-73
2023/01/14 02:04:38;;;;;;;39.40;7.17;;;;;;;;;;5115742;28;20204;-71
2023/01/14 02:07:13;;;;;;;36.17;7.33;;;;;;;;;;5116213;28;20156;-72
2023/01/14 02:09:39;;;;;;;28.77;6.60;;;;;;;;;;5114511;28;20176;-71
2023/01/14 02:12:24;;;;;;;32.13;5.97;;;;;;;;;;5116030;28;20667;-71
2023/01/14 02:15:08;;;;;;;36.10;7.03;;;;;;;;;;5114393;28;20231;-73
2023/01/14 02:17:57;;;;;;;36.07;7.07;;;;;;;;;;5115921;28;20190;-72
2023/01/14 02:20:27;;;;;;;37.27;7.37;;;;;;;;;;5115710;28;20204;-73
2023/01/14 02:23:07;;;;;;;24.60;6.70;;;;;;;;;;5115607;28;20176;-71
2023/01/14 02:25:45;;;;;;;39.03;6.93;;;;;;;;;;5115407;28;20243;-72
2023/01/14 02:28:17;;;;;;;35.23;7.33;;;;;;;;;;5114266;28;20627;-71
2023/01/14 02:30:49;;;;;;;37.03;7.60;;;;;;;;;;5115314;28;20654;-71
2023/01/14 02:33:22;;;;;;;29.87;5.33;;;;;;;;;;5115766;28;20176;-72
2023/01/14 02:36:00;;;;;;;28.87;6.63;;;;;;;;;;5115401;28;20199;-73
2023/01/14 02:38:32;;;;;;;37.63;8.07;;;;;;;;;;5115416;28;20203;-72
2023/01/14 02:41:09;;;;;;;30.13;6.10;;;;;;;;;;5117854;28;20157;-72
2023/01/14 02:44:07;;;;;;;33.30;6.30;;;;;;;;;;5115504;28;20161;-71
2023/01/14 02:46:35;;;;;;;32.10;6.50;;;;;;;;;;5113997;28;20196;-71
2023/01/14 02:49:03;;;;;;;36.57;7.60;;;;;;;;;;5115508;28;20187;-71
2023/01/14 02:51:29;;;;;;;34.27;7.33;;;;;;;;;;5119724;28;20183;-71
2023/01/14 02:53:55;;;;;;;29.60;6.27;;;;;;;;;;5124864;28;20176;-72
2023/01/14 02:56:21;;;;;;;34.17;6.03;;;;;;;;;;5122290;28;20227;-72
2023/01/14 02:58:56;;;;;;;40.63;7.03;;;;;;;;;;5115901;28;20684;-71
2023/01/14 03:01:32;;;;;;;31.37;6.63;;;;;;;;;;5115642;28;20247;-71
2023/01/14 03:04:01;;;;;;;31.63;7.37;;;;;;;;;;5115387;28;20153;-71
2023/01/14 03:06:44;;;;;;;37.17;8.17;;;;;;;;;;5113394;28;20212;-71
2023/01/14 03:09:16;;;;;;;36.13;8.20;;;;;;;;;;5113602;28;20175;-71
2023/01/14 03:11:49;;;;;;;41.80;8.70;;;;;;;;;;5114889;28;20164;-72
2023/01/14 03:14:20;;;;;;;40.63;8.37;;;;;;;;;;5114855;28;20169;-71
2023/01/14 03:16:50;;;;;;;40.47;7.33;;;;;;;;;;5115183;28;20168;-72
2023/01/14 03:19:19;;;;;;;27.73;6.73;;;;;;;;;;5113425;28;20237;-72
2023/01/14 03:21:48;;;;;;;35.97;7.07;;;;;;;;;;5114654;28;20176;-71
2023/01/14 03:24:22;;;;;;;33.00;8.60;;;;;;;;;;5113362;28;20180;-73
2023/01/14 03:26:49;;;;;;;30.47;6.60;;;;;;;;;;5114475;28;20163;-71
2023/01/14 03:29:18;;;;;;;31.50;6.93;;;;;;;;;;5113205;28;20334;-71
2023/01/14 03:31:50;;;;;;;33.30;6.87;;;;;;;;;;5116040;28;20191;-71
2023/01/14 03:34:18;;;;;;;29.47;6.37;;;;;;;;;;5114815;28;20183;-71
2023/01/14 03:36:47;;;;;;;37.73;8.17;;;;;;;;;;5114718;28;20176;-71
2023/01/14 03:39:15;;;;;;;31.43;7.23;;;;;;;;;;5114775;28;20200;-73
2023/01/14 03:44:38;;;;;;;29.63;6.20;;;;;;;;;;5114996;28;20253;-71
2023/01/14 03:47:04;;;;;;;33.80;7.47;;;;;;;;;;5114551;28;20175;-71
2023/01/14 03:49:30;;;;;;;25.37;6.53;;;;;;;;;;5113035;28;20212;-72
2023/01/14 03:52:03;;;;;;;31.73;7.97;;;;;;;;;;5113221;28;20177;-71
2023/01/14 03:54:43;;;;;;;32.50;7.40;;;;;;;;;;5112964;28;20180;-72
2023/01/14 03:57:26;;;;;;;32.80;8.00;;;;;;;;;;5112893;28;20233;-71
2023/01/14 04:00:00;;;;;;;38.33;7.97;;;;;;;;;;5114323;28;20538;-73
2023/01/14 04:02:27;;;;;;;28.57;6.20;;;;;;;;;;5114052;28;20260;-71
2023/01/14 04:04:53;;;;;;;27.57;7.60;;;;;;;;;;5113976;28;20211;-71
2023/01/14 04:07:19;;;;;;;40.10;7.07;;;;;;;;;;5113850;28;20169;-70
2023/01/14 04:09:45;;;;;;;30.40;6.73;;;;;;;;;;5113901;28;20263;-71
2023/01/14 04:12:11;;;;;;;33.23;6.63;;;;;;;;;;5113968;28;20613;-71
2023/01/14 04:17:22;;;;;;;31.63;7.37;;;;;;;;;;5114457;28;20653;-71
2023/01/14 04:19:47;;;;;;;32.17;6.97;;;;;;;;;;5114818;28;20200;-71
2023/01/14 04:22:13;;;;;;;39.77;6.57;;;;;;;;;;5120476;28;20172;-72
2023/01/14 04:24:39;;;;;;;32.53;6.93;;;;;;;;;;5116395;28;20204;-71
2023/01/14 04:27:05;;;;;;;24.10;5.87;;;;;;;;;;5117927;28;20177;-71
2023/01/14 04:29:31;;;;;;;34.70;7.27;;;;;;;;;;5116779;28;20180;-73
2023/01/14 04:31:57;;;;;;;33.87;6.33;;;;;;;;;;5117780;28;20256;-71
2023/01/14 04:34:23;;;;;;;26.27;7.13;;;;;;;;;;5117702;28;20180;-73
2023/01/14 04:36:49;;;;;;;33.77;6.10;;;;;;;;;;5116545;28;20672;-73
2023/01/14 04:39:15;;;;;;;27.10;6.40;;;;;;;;;;5117733;28;20700;-71
2023/01/14 04:44:25;;;;;;;31.47;6.73;;;;;;;;;;5117737;28;20168;-71
2023/01/14 04:46:51;;;;;;;31.77;6.57;;;;;;;;;;5117436;28;20181;-71
2023/01/14 04:49:17;;;;;;;24.57;6.40;;;;;;;;;;5115906;28;20185;-71
2023/01/14 04:51:43;;;;;;;35.07;6.77;;;;;;;;;;5115963;28;20186;-72
2023/01/14 04:54:09;;;;;;;26.83;5.90;;;;;;;;;;5117110;28;20267;-71
2023/01/14 04:56:35;;;;;;;23.73;4.87;;;;;;;;;;5117421;28;20697;-72
2023/01/14 04:59:03;;;;;;;25.03;5.87;;;;;;;;;;5116849;28;20208;-72
2023/01/14 05:01:29;;;;;;;26.57;6.20;;;;;;;;;;5117399;28;20605;-71
2023/01/14 05:03:58;;;;;;;23.40;5.73;;;;;;;;;;5116952;28;20173;-71
2023/01/14 05:06:24;;;;;;;28.63;6.10;;;;;;;;;;5116669;28;20235;-71
2023/01/14 05:08:50;;;;;;;24.97;5.20;;;;;;;;;;5115416;28;20177;-73
2023/01/14 05:11:16;;;;;;;23.03;4.70;;;;;;;;;;5117673;28;20279;-72
2023/01/14 05:13:42;;;;;;;22.80;5.63;;;;;;;;;;5117832;28;20545;-71
2023/01/14 05:16:09;;;;;;;27.90;5.93;;;;;;;;;;5115523;28;20621;-71
2023/01/14 05:18:35;;;;;;;26.57;5.40;;;;;;;;;;5115314;28;20204;-71
2023/01/14 05:21:01;;;;;;;32.27;5.83;;;;;;;;;;5116745;28;20684;-71
2023/01/14 05:23:27;;;;;;;27.07;5.47;;;;;;;;;;5115349;28;20181;-71
2023/01/14 05:25:53;;;;;;;25.17;5.87;;;;;;;;;;5114966;28;20558;-71
2023/01/14 05:28:20;;;;;;;30.70;5.57;;;;;;;;;;5116555;28;20179;-71
2023/01/14 05:30:46;;;;;;;25.60;4.83;;;;;;;;;;5115308;28;20634;-71
2023/01/14 05:33:12;;;;;;;25.53;5.07;;;;;;;;;;5118312;28;20211;-72
2023/01/14 05:35:38;;;;;;;20.70;4.87;;;;;;;;;;5124949;28;20689;-73
2023/01/14 05:38:05;;;;;;;21.03;5.30;;;;;;;;;;5124826;28;20191;-71
2023/01/14 05:40:31;;;;;;;26.30;5.20;;;;;;;;;;5117859;28;20204;-71
2023/01/14 05:45:52;;;;;;;30.80;6.10;;;;;;;;;;5116827;28;20574;-71
2023/01/14 05:48:22;;;;;;;30.23;6.07;;;;;;;;;;5114992;28;20207;-71
2023/01/14 05:50:52;;;;;;;21.90;4.60;;;;;;;;;;5116024;28;20173;-71
2023/01/14 05:53:18;;;;;;;23.23;4.83;;;;;;;;;;5114929;28;20613;-71
2023/01/14 05:55:44;;;;;;;28.97;5.70;;;;;;;;;;5115910;28;20203;-71
2023/01/14 05:58:10;;;;;;;28.80;5.13;;;;;;;;;;5114721;28;20173;-71
2023/01/14 06:06:34;;;;;;;26.27;5.87;;;;;;;;;;5116551;28;20256;-71
2023/01/14 06:09:01;;;;;;;23.90;5.17;;;;;;;;;;5113666;28;20195;-72
2023/01/14 06:11:28;;;;;;;22.10;5.33;;;;;;;;;;5115556;28;20263;-71
2023/01/14 06:13:57;;;;;;;25.00;5.13;;;;;;;;;;5115934;28;20208;-71
2023/01/14 06:16:23;;;;;;;30.23;5.20;;;;;;;;;;5114341;28;20203;-71
2023/01/14 06:18:49;;;;;;;25.03;5.70;;;;;;;;;;5114029;28;20211;-72
2023/01/14 06:21:16;;;;;;;16.87;3.97;;;;;;;;;;5115463;28;20172;-71
2023/01/14 06:23:42;;;;;;;23.03;4.50;;;;;;;;;;5114311;28;20180;-72
2023/01/14 06:26:10;;;;;;;20.67;4.70;;;;;;;;;;5115406;28;20188;-71
2023/01/14 06:28:36;;;;;;;25.03;5.60;;;;;;;;;;5114264;28;20191;-71
2023/01/14 06:31:02;;;;;;;21.30;5.37;;;;;;;;;;5114430;28;20180;-72
2023/01/14 06:33:28;;;;;;;21.97;6.27;;;;;;;;;;5116064;28;20199;-72
2023/01/14 06:35:55;;;;;;;26.00;7.07;;;;;;;;;;5114362;28;20208;-72
2023/01/14 06:38:22;;;;;;;25.80;7.73;;;;;;;;;;5114255;28;20180;-71
2023/01/14 06:40:48;;;;;;;35.17;9.70;;;;;;;;;;5115693;28;20556;-71
2023/01/14 06:43:14;;;;;;;35.23;10.13;;;;;;;;;;5113354;28;20195;-72
2023/01/14 06:45:40;;;;;;;36.07;13.97;;;;;;;;;;5113772;28;20252;-72
2023/01/14 06:48:06;;;;;;;36.50;13.87;;;;;;;;;;5114841;28;20593;-71
2023/01/14 06:50:32;;;;;;;45.97;14.93;;;;;;;;;;5113446;28;20181;-71
2023/01/14 06:53:02;;;;;;;41.53;14.07;;;;;;;;;;5115392;28;20180;-71
2023/01/14 06:55:28;;;;;;;41.63;13.13;;;;;;;;;;5113438;28;20207;-72
2023/01/14 06:57:54;;;;;;;36.70;12.17;;;;;;;;;;5114977;28;20206;-72
2023/01/14 07:00:20;;;;;;;32.07;10.00;;;;;;;;;;5114842;28;20208;-71
2023/01/14 07:02:46;;;;;;;22.57;7.40;;;;;;;;;;5113301;28;20184;-71
2023/01/14 07:05:14;;;;;;;23.77;6.80;;;;;;;;;;5113110;28;20581;-73
2023/01/14 07:07:40;;;;;;;18.23;5.40;;;;;;;;;;5113319;28;20179;-71
2023/01/14 07:10:06;;;;;;;28.53;6.63;;;;;;;;;;5114399;28;20549;-72
2023/01/14 07:12:34;;;;;;;24.77;6.33;;;;;;;;;;5113146;28;20184;-72
2023/01/14 07:15:00;;;;;;;21.30;6.47;;;;;;;;;;5113128;28;20224;-73
2023/01/14 07:17:26;;;;;;;22.57;7.07;;;;;;;;;;5113092;28;20559;-72
2023/01/14 07:19:53;;;;;;;25.03;6.67;;;;;;;;;;5112963;28;20264;-72
2023/01/14 07:22:19;;;;;;;18.77;6.30;;;;;;;;;;5115005;28;20173;-72
2023/01/14 07:24:45;;;;;;;23.80;7.53;;;;;;;;;;5114480;28;20721;-72
2023/01/14 07:27:11;;;;;;;24.17;7.53;;;;;;;;;;5112956;28;20225;-72
2023/01/14 07:29:37;;;;;;;24.43;7.70;;;;;;;;;;5114162;28;20215;-72
2023/01/14 07:32:03;;;;;;;28.30;7.90;;;;;;;;;;5114759;28;20172;-72
2023/01/14 07:34:29;;;;;;;28.80;7.60;;;;;;;;;;5114258;28;20224;-73
2023/01/14 07:36:55;;;;;;;21.33;6.07;;;;;;;;;;5112762;28;20665;-72
2023/01/14 07:39:21;;;;;;;19.50;5.60;;;;;;;;;;5114143;28;20222;-73
2023/01/14 07:41:47;;;;;;;21.73;5.40;;;;;;;;;;5114617;28;20173;-72
2023/01/14 07:44:13;;;;;;;21.23;6.07;;;;;;;;;;5114187;28;20267;-73
2023/01/14 07:46:39;;;;;;;26.97;6.47;;;;;;;;;;5113978;28;20195;-72
2023/01/14 07:49:05;;;;;;;25.90;6.47;;;;;;;;;;5113839;28;20244;-72
2023/01/14 07:51:31;;;;;;;24.97;7.13;;;;;;;;;;5114217;28;20172;-72
2023/01/14 07:53:57;;;;;;;28.07;7.07;;;;;;;;;;5113183;28;20658;-72
2023/01/14 07:56:23;;;;;;;24.87;6.23;;;;;;;;;;5114345;28;20665;-73
2023/01/14 07:58:49;;;;;;;18.17;6.10;;;;;;;;;;5113972;28;20248;-72
2023/01/14 08:01:15;;;;;;;24.00;6.63;;;;;;;;;;5113766;28;20616;-71
2023/01/14 08:03:41;;;;;;;26.47;7.17;;;;;;;;;;5112345;28;20172;-73
2023/01/14 08:06:07;;;;;;;25.97;7.53;;;;;;;;;;5155127;22;20232;-71
2023/01/14 08:08:34;;;;;;;27.83;7.90;;;;;;;;;;5113167;28;20176;-71
2023/01/14 08:11:00;;;;;;;28.33;8.60;;;;;;;;;;5113166;28;20168;-72
2023/01/14 08:13:27;;;;;;;28.70;8.73;;;;;;;;;;5114560;28;20628;-71
2023/01/14 08:15:57;;;;;;;27.23;7.83;;;;;;;;;;5112913;28;20676;-71
2023/01/14 08:18:23;;;;;;;24.33;7.60;;;;;;;;;;5114526;28;20161;-72
2023/01/14 08:20:56;;;;;;;25.57;7.57;;;;;;;;;;5114488;28;20251;-71
2023/01/14 08:23:22;;;;;;;27.80;7.83;;;;;;;;;;5115480;28;20157;-71
2023/01/14 08:25:48;;;;;;;26.13;7.93;;;;;;;;;;5112781;28;20192;-71
2023/01/14 08:28:14;;;;;;;26.27;9.27;;;;;;;;;;5112756;28;20173;-71
2023/01/14 08:30:39;;;;;;;22.90;8.90;;;;;;;;;;5112668;28;20270;-71
2023/01/14 08:33:05;;;;;;;28.90;7.90;;;;;;;;;;5113496;28;20181;-71
2023/01/14 08:35:31;;;;;;;19.80;7.80;;;;;;;;;;5112628;28;20617;-71
2023/01/14 08:37:57;;;;;;;21.60;6.43;;;;;;;;;;5113999;28;20249;-72
2023/01/14 08:40:23;;;;;;;29.73;6.80;;;;;;;;;;5114568;28;20279;-72
2023/01/14 08:42:49;;;;;;;21.77;6.53;;;;;;;;;;5113845;28;20172;-72
2023/01/14 08:45:15;;;;;;;18.57;5.57;;;;;;;;;;5112498;28;20222;-71
2023/01/14 08:47:41;;;;;;;25.00;5.63;;;;;;;;;;5112676;28;20681;-72
2023/01/14 08:50:07;;;;;;;23.60;6.27;;;;;;;;;;5112677;28;20176;-72
2023/01/14 08:52:33;;;;;;;22.13;6.40;;;;;;;;;;5113779;28;20641;-72
2023/01/14 08:55:00;;;;;;;23.50;6.53;;;;;;;;;;5113754;28;20176;-72
2023/01/14 08:57:26;;;;;;;21.97;6.10;;;;;;;;;;5112635;28;20702;-71
2023/01/14 08:59:51;;;;;;;26.37;7.23;;;;;;;;;;5113824;28;20278;-71
2023/01/14 09:02:17;;;;;;;26.63;8.30;;;;;;;;;;5112358;28;20173;-71
2023/01/14 09:04:43;;;;;;;21.10;8.50;;;;;;;;;;5114001;28;20247;-71
2023/01/14 09:18:07;;;;;;;22.13;7.43;;;;;;;;;;5118146;28;20533;-72
2023/01/14 09:20:38;;;;;;;16.27;5.67;;;;;;;;;;5117524;28;20246;-72
2023/01/14 09:23:05;;;;;;;16.77;5.43;;;;;;;;;;5116866;28;20556;-72
2023/01/14 09:25:31;;;;;;;18.83;5.87;;;;;;;;;;5117468;28;20184;-72
2023/01/14 09:27:57;;;;;;;21.13;7.00;;;;;;;;;;5116790;28;20176;-72
2023/01/14 09:30:23;;;;;;;21.77;7.40;;;;;;;;;;5117756;28;20180;-72
2023/01/14 09:32:49;;;;;;;22.93;6.73;;;;;;;;;;5117391;28;20260;-72
2023/01/14 09:35:15;;;;;;;19.10;5.63;;;;;;;;;;5116091;28;20263;-72
2023/01/14 09:37:41;;;;;;;18.47;4.57;;;;;;;;;;5117293;28;20249;-72
2023/01/14 09:40:08;;;;;;;19.00;5.30;;;;;;;;;;5117287;28;20227;-72
2023/01/14 09:42:39;;;;;;;13.40;5.00;;;;;;;;;;5117307;28;20172;-72
2023/01/14 09:45:10;;;;;;;17.70;4.80;;;;;;;;;;5115878;28;20175;-72
2023/01/14 09:47:37;;;;;;;19.53;5.00;;;;;;;;;;5117047;28;20192;-72
2023/01/14 09:50:06;;;;;;;12.87;4.00;;;;;;;;;;5115413;28;20180;-72
2023/01/14 09:52:32;;;;;;;14.27;4.17;;;;;;;;;;5116830;28;20173;-72
2023/01/14 09:55:04;;;;;;;12.57;3.83;;;;;;;;;;5117026;28;20215;-72
2023/01/14 09:57:36;;;;;;;16.57;4.17;;;;;;;;;;5116840;28;20203;-72
2023/01/14 10:00:11;;;;;;;13.57;4.53;;;;;;;;;;5116629;28;20200;-72
2023/01/14 10:02:48;;;;;;;11.53;4.60;;;;;;;;;;5115635;28;20197;-73
2023/01/14 10:05:17;;;;;;;14.57;4.47;;;;;;;;;;5117313;28;20226;-72
2023/01/14 10:07:43;;;;;;;13.93;4.87;;;;;;;;;;5117048;28;20567;-72
2023/01/14 10:10:23;;;;;;;13.20;4.33;;;;;;;;;;5115723;28;20256;-72
2023/01/14 10:12:50;;;;;;;11.43;4.50;;;;;;;;;;5116840;28;20633;-72
2023/01/14 10:15:19;;;;;;;11.60;4.73;;;;;;;;;;5117189;28;20645;-71
2023/01/14 10:17:49;;;;;;;13.53;4.27;;;;;;;;;;5114918;28;20650;-71
2023/01/14 10:20:21;;;;;;;14.87;5.10;;;;;;;;;;5114872;28;20576;-71
2023/01/14 10:22:52;;;;;;;15.17;5.20;;;;;;;;;;5114920;28;20180;-71
2023/01/14 10:25:20;;;;;;;14.77;5.30;;;;;;;;;;5116282;28;20176;-71
2023/01/14 10:27:49;;;;;;;12.53;5.53;;;;;;;;;;5117019;28;20172;-71
2023/01/14 10:30:27;;;;;;;13.23;5.43;;;;;;;;;;5114607;28;20181;-72
2023/01/14 10:32:54;;;;;;;9.50;5.27;;;;;;;;;;5115837;28;20657;-71
2023/01/14 10:35:28;;;;;;;14.23;5.43;;;;;;;;;;5114069;28;20209;-71
2023/01/14 10:37:54;;;;;;;13.50;6.30;;;;;;;;;;5114192;28;20195;-70
2023/01/14 10:40:23;;;;;;;15.70;7.43;;;;;;;;;;5114108;28;20673;-71
2023/01/14 10:42:49;;;;;;;18.87;8.57;;;;;;;;;;5115582;28;20200;-71
2023/01/14 10:45:16;;;;;;;21.30;9.10;;;;;;;;;;5115586;28;20173;-71
2023/01/14 10:47:43;;;;;;;19.83;8.53;;;;;;;;;;5113890;28;20204;-71
2023/01/14 10:50:23;;;;;;;15.90;7.57;;;;;;;;;;5113885;28;20188;-71
2023/01/14 10:52:53;;;;;;;18.20;7.37;;;;;;;;;;5115164;28;20176;-71
2023/01/14 10:55:21;;;;;;;13.27;6.80;;;;;;;;;;5113877;28;20229;-72
2023/01/14 10:57:47;;;;;;;13.40;6.67;;;;;;;;;;5113963;28;20275;-71
2023/01/14 11:00:33;;;;;;;11.43;6.03;;;;;;;;;;5114235;28;20249;-71
2023/01/14 11:03:00;;;;;;;10.33;4.33;;;;;;;;;;5116185;28;20540;-72
2023/01/14 11:05:34;;;;;;;9.70;5.23;;;;;;;;;;5114171;28;20181;-71
2023/01/14 11:08:19;;;;;;;13.27;4.90;;;;;;;;;;5115586;28;20265;-71
2023/01/14 11:10:45;;;;;;;11.17;4.53;;;;;;;;;;5114273;28;20180;-72
2023/01/14 11:13:36;;;;;;;14.43;7.07;;;;;;;;;;5115606;28;20180;-71
2023/01/14 11:16:02;;;;;;;18.33;9.97;;;;;;;;;;5109817;27;20299;-71
2023/01/14 11:18:30;;;;;;;18.53;10.43;;;;;;;;;;5113782;28;20271;-71
2023/01/14 11:21:12;;;;;;;16.83;8.90;;;;;;;;;;5115025;28;20259;-71
2023/01/14 11:23:39;;;;;;;12.87;6.40;;;;;;;;;;5115423;28;20172;-71
2023/01/14 11:26:07;;;;;;;14.47;7.07;;;;;;;;;;5115014;28;20547;-72
2023/01/14 11:28:35;;;;;;;14.97;7.27;;;;;;;;;;5115180;28;20641;-71
2023/01/14 11:31:01;;;;;;;14.40;6.97;;;;;;;;;;5115071;28;20263;-72
2023/01/14 11:33:27;;;;;;;13.93;6.97;;;;;;;;;;5115399;28;20204;-71
2023/01/14 11:35:57;;;;;;;15.37;5.93;;;;;;;;;;5116231;28;20200;-71
2023/01/14 11:38:23;;;;;;;14.73;6.40;;;;;;;;;;5114645;28;20180;-72
2023/01/14 11:43:35;;;;;;;12.13;6.83;;;;;;;;;;5116957;28;20168;-73
2023/01/14 11:46:10;;;;;;;15.30;7.43;;;;;;;;;;5117015;28;20202;-72
2023/01/14 11:48:36;;;;;;;17.33;7.87;;;;;;;;;;5117531;28;20160;-73
2023/01/14 11:51:05;;;;;;;18.13;9.13;;;;;;;;;;5114670;28;20246;-72
2023/01/14 11:53:50;;;;;;;29.63;10.80;;;;;;;;;;5120187;28;20184;-72
2023/01/14 11:56:18;;;;;;;26.57;10.57;;;;;;;;;;5130454;28;20188;-72
2023/01/14 11:58:44;;;;;;;28.30;10.80;;;;;;;;;;5127897;28;20195;-72
2023/01/14 12:01:31;;;;;;;16.90;8.77;;;;;;;;;;5128816;28;20180;-73
2023/01/14 12:04:03;;;;;;;22.77;9.60;;;;;;;;;;5120406;28;20176;-73
2023/01/14 12:06:36;;;;;;;20.10;9.03;;;;;;;;;;5117493;28;20233;-72
2023/01/14 12:09:04;;;;;;;14.43;7.00;;;;;;;;;;5117543;28;20581;-72
2023/01/14 12:11:41;;;;;;;13.07;5.87;;;;;;;;;;5114693;28;20199;-72
2023/01/14 12:16:59;;;;;;;8.93;2.60;;;;;;;;;;5115898;28;20214;-71
2023/01/14 12:19:31;;;;;;;11.80;3.13;;;;;;;;;;5114634;28;20295;-71
2023/01/14 12:22:04;;;;;;;11.60;3.30;;;;;;;;;;5115930;28;20187;-71
2023/01/14 12:24:34;;;;;;;9.13;3.30;;;;;;;;;;5115812;28;20168;-72
2023/01/14 12:27:01;;;;;;;7.23;2.67;;;;;;;;;;5116769;28;20196;-72
2023/01/14 12:29:32;;;;;;;6.67;2.20;;;;;;;;;;5115914;28;20256;-72
2023/01/14 12:32:19;;;;;;;6.97;2.10;;;;;;;;;;5116402;28;20229;-72
2023/01/14 12:34:47;;;;;;;5.87;2.40;;;;;;;;;;5114789;28;20169;-71
2023/01/14 12:37:19;;;;;;;3.97;1.80;;;;;;;;;;5115629;28;20201;-71
2023/01/14 12:45:54;;;;;;;4.57;2.17;;;;;;;;;;5055699;28;20294;-71
2023/01/14 12:48:21;;;;;;;5.53;2.10;;;;;;;;;;5055962;28;20183;-72
2023/01/14 12:51:02;;;;;;;6.17;2.33;;;;;;;;;;5076915;28;20208;-71
2023/01/14 12:53:36;;;;;;;3.37;1.90;;;;;;;;;;5118560;28;20259;-72
2023/01/14 12:56:05;;;;;;;3.00;2.10;;;;;;;;;;5118182;28;20204;-72
2023/01/14 12:58:36;;;;;;;4.90;1.97;;;;;;;;;;5119301;28;20195;-72
2023/01/14 13:01:05;;;;;;;3.33;1.83;;;;;;;;;;5117453;28;20208;-72
2023/01/14 13:03:36;;;;;;;2.80;2.00;;;;;;;;;;5118320;28;20283;-72
2023/01/14 13:06:13;;;;;;;3.10;2.27;;;;;;;;;;5117800;28;20238;-72
2023/01/14 13:08:40;;;;;;;4.03;2.27;;;;;;;;;;5116715;28;20549;-72
2023/01/14 13:11:38;;;;;;;5.13;2.10;;;;;;;;;;5117033;28;20221;-72
2023/01/14 13:14:04;;;;;;;3.37;2.00;;;;;;;;;;5095421;28;20226;-72
2023/01/14 13:16:38;;;;;;;2.30;1.87;;;;;;;;;;5116836;28;20218;-72
2023/01/14 13:19:06;;;;;;;2.93;2.00;;;;;;;;;;5118387;28;20329;-71
2023/01/14 13:21:50;;;;;;;3.23;1.67;;;;;;;;;;5117930;28;20195;-70
2023/01/14 13:24:31;;;;;;;2.33;1.93;;;;;;;;;;5117821;28;20263;-72
2023/01/14 13:26:58;;;;;;;3.57;1.90;;;;;;;;;;5118204;28;20245;-71
2023/01/14 13:29:26;;;;;;;2.80;1.87;;;;;;;;;;5118223;28;20200;-72
2023/01/14 13:31:53;;;;;;;3.90;1.93;;;;;;;;;;5118226;28;20255;-72
2023/01/14 13:34:22;;;;;;;8.47;3.13;;;;;;;;;;5118210;28;20173;-72
2023/01/14 13:37:09;;;;;;;6.40;3.93;;;;;;;;;;5117598;28;20256;-71
2023/01/14 13:39:35;;;;;;;21.37;14.53;;;;;;;;;;5117751;28;20230;-72
2023/01/14 13:42:13;;;;;;;119.20;61.27;;;;;;;;;;5117616;28;20173;-72
2023/01/14 13:44:45;;;;;;;20.53;9.53;;;;;;;;;;5115889;28;20550;-72
2023/01/14 13:47:20;;;;;;;108.70;67.60;;;;;;;;;;5119310;28;20195;-70
2023/01/14 13:50:05;;;;;;;6.33;3.83;;;;;;;;;;5118172;28;20256;-70
2023/01/14 13:52:34;;;;;;;6.20;3.80;;;;;;;;;;5116247;28;20187;-71
2023/01/14 13:55:17;;;;;;;10.30;4.50;;;;;;;;;;5116253;28;20180;-71
2023/01/14 13:57:49;;;;;;;15.57;11.80;;;;;;;;;;5117531;28;20672;-71
2023/01/14 14:00:18;;;;;;;4.63;2.53;;;;;;;;;;5117718;28;20713;-71
2023/01/14 14:02:44;;;;;;;8.23;5.63;;;;;;;;;;5116190;28;20172;-71
2023/01/14 14:05:27;;;;;;;20.60;16.37;;;;;;;;;;5116625;28;20190;-71
2023/01/14 14:08:09;;;;;;;6.23;4.30;;;;;;;;;;5117428;28;20163;-71
2023/01/14 14:10:42;;;;;;;8.17;4.70;;;;;;;;;;5116994;28;20195;-71
2023/01/14 14:16:02;;;;;;;4.27;3.87;;;;;;;;;;5116692;28;20253;-71
2023/01/14 14:18:35;;;;;;;8.87;6.63;;;;;;;;;;5116919;28;20186;-71
2023/01/14 14:21:02;;;;;;;4.73;4.10;;;;;;;;;;5116819;28;20187;-72
2023/01/14 14:23:34;;;;;;;3.77;2.10;;;;;;;;;;5115120;28;20267;-72
2023/01/14 14:26:02;;;;;;;3.40;2.40;;;;;;;;;;5115210;28;20196;-72
2023/01/14 14:28:29;;;;;;;5.30;4.80;;;;;;;;;;5117260;28;20225;-72
2023/01/14 14:30:59;;;;;;;3.23;2.00;;;;;;;;;;5116303;28;20177;-74
2023/01/14 14:33:38;;;;;;;6.73;4.30;;;;;;;;;;5116311;28;20172;-72
2023/01/14 14:36:24;;;;;;;3.53;2.20;;;;;;;;;;5117624;28;20626;-72
2023/01/14 14:38:57;;;;;;;4.83;2.50;;;;;;;;;;5115450;28;20679;-73
2023/01/14 14:41:25;;;;;;;6.47;5.43;;;;;;;;;;5115638;28;20180;-72
2023/01/14 14:43:55;;;;;;;5.17;2.97;;;;;;;;;;5115757;28;20558;-72
2023/01/14 14:46:25;;;;;;;3.63;3.07;;;;;;;;;;5117278;28;20195;-72
2023/01/14 14:48:51;;;;;;;5.00;3.33;;;;;;;;;;5117548;28;20255;-73
2023/01/14 14:51:23;;;;;;;5.83;3.90;;;;;;;;;;5116950;28;20173;-72
2023/01/14 14:53:49;;;;;;;5.53;3.33;;;;;;;;;;5116764;28;20157;-73
2023/01/14 14:56:16;;;;;;;3.93;2.43;;;;;;;;;;5116078;28;20286;-72
2023/01/14 14:58:51;;;;;;;1.60;1.50;;;;;;;;;;5114330;28;20199;-72
2023/01/14 15:01:17;;;;;;;3.53;2.67;;;;;;;;;;5114187;28;20202;-72
2023/01/14 15:03:46;;;;;;;1.87;1.60;;;;;;;;;;5115707;28;20177;-72
2023/01/14 15:06:13;;;;;;;5.80;3.40;;;;;;;;;;5115305;28;20215;-72
2023/01/14 15:08:52;;;;;;;3.23;1.93;;;;;;;;;;5113809;28;20226;-72
2023/01/14 15:11:21;;;;;;;5.00;2.37;;;;;;;;;;5113980;28;20175;-73
2023/01/14 15:13:47;;;;;;;1.70;1.60;;;;;;;;;;5115255;28;20516;-71
2023/01/14 15:16:18;;;;;;;2.30;2.10;;;;;;;;;;5115131;28;20218;-71
2023/01/14 15:18:47;;;;;;;1.97;1.40;;;;;;;;;;5113486;28;20176;-71
2023/01/14 15:21:15;;;;;;;1.80;1.70;;;;;;;;;;5113603;28;20184;-72
2023/01/14 15:23:46;;;;;;;2.20;1.40;;;;;;;;;;5139449;22;20284;-70
2023/01/14 15:26:17;;;;;;;2.40;1.60;;;;;;;;;;5114632;27;20191;-70